Time;durP1;ratioP1;P1;durP2;ratioP2;P2;SDS_P1;SDS_P2;PMS_P1;PMS_P2;Temp;Humidity;BMP_temperature;BMP_pressure;BME280_temperature;BME280_humidity;BME280_pressure;Samples;Min_cycle;Max_cycle;Signal;HPM_P1;HPM_P2
2023/04/30 00:01:03;;;;;;;0.60;0.60;;;17.50;65.90;;;17.75;49.26;95069.69;5051801;28;20588;-45
2023/04/30 00:03:30;;;;;;;0.50;0.50;;;17.50;65.90;;;17.72;49.05;95065.66;5032649;28;20210;-42
2023/04/30 00:05:57;;;;;;;0.50;0.50;;;17.50;66.00;;;17.71;49.16;95065.88;5032128;28;20583;-39
2023/04/30 00:08:24;;;;;;;0.60;0.60;;;17.50;66.00;;;17.70;49.65;95072.22;5032685;28;20180;-39
2023/04/30 00:10:51;;;;;;;0.50;0.50;;;17.50;66.00;;;17.69;49.39;95073.28;5046675;28;20260;-39
2023/04/30 00:13:18;;;;;;;0.60;0.60;;;17.50;66.00;;;17.68;49.51;95074.31;5051826;28;20187;-39
2023/04/30 00:15:45;;;;;;;0.60;0.60;;;17.40;66.00;;;17.67;49.29;95072.69;5034608;28;20202;-38
2023/04/30 00:18:12;;;;;;;0.60;0.60;;;17.50;66.10;;;17.66;49.59;95071.06;5052354;28;20200;-42
2023/04/30 00:20:39;;;;;;;0.60;0.60;;;17.40;66.00;;;17.64;49.75;95079.28;5051814;28;20200;-39
2023/04/30 00:23:06;;;;;;;0.50;0.50;;;17.40;66.00;;;17.61;49.64;95074.41;5052408;28;20203;-40
2023/04/30 00:25:34;;;;;;;0.60;0.60;;;17.40;66.00;;;17.61;49.62;95074.41;5053532;28;20234;-39
2023/04/30 00:28:01;;;;;;;0.60;0.60;;;17.40;66.00;;;17.61;49.50;95069.13;5038103;28;20668;-40
2023/04/30 00:30:28;;;;;;;0.60;0.60;;;17.40;66.10;;;17.60;49.47;95075.44;5054272;28;20242;-39
2023/04/30 00:32:55;;;;;;;0.52;0.52;;;17.40;66.10;;;17.58;49.94;95074.91;5055451;28;20214;-39
2023/04/30 00:35:22;;;;;;;0.55;0.55;;;17.40;66.10;;;17.56;49.76;95080.41;5055819;28;20195;-38
2023/04/30 00:37:49;;;;;;;0.60;0.60;;;17.40;66.10;;;17.56;49.84;95071.66;5055428;28;20274;-40
2023/04/30 00:40:16;;;;;;;0.50;0.50;;;17.40;66.10;;;17.56;49.96;95071.66;5046845;28;20256;-38
2023/04/30 00:42:43;;;;;;;0.50;0.50;;;17.30;66.10;;;17.54;49.41;95079.84;5035194;28;20275;-39
2023/04/30 00:45:10;;;;;;;0.63;0.63;;;17.30;66.10;;;17.52;49.57;95071.31;5018054;28;20215;-38
2023/04/30 00:47:37;;;;;;;0.50;0.50;;;17.30;66.10;;;17.51;49.67;95072.34;5034470;28;20233;-39
2023/04/30 00:50:06;;;;;;;0.57;0.57;;;17.30;66.10;;;17.51;49.63;95071.56;5035018;28;20226;-38
2023/04/30 00:52:32;;;;;;;0.50;0.50;;;17.30;66.10;;;17.49;49.86;95071.78;5018068;28;20215;-39
2023/04/30 00:54:59;;;;;;;0.55;0.55;;;17.30;66.20;;;17.49;49.44;95070.97;5035561;28;20213;-38
2023/04/30 00:57:27;;;;;;;0.50;0.50;;;17.30;66.20;;;17.47;49.88;95073.03;5034997;28;20199;-39
2023/04/30 00:59:55;;;;;;;0.50;0.50;;;17.30;67.10;;;17.46;49.69;95079.41;5035026;28;20196;-39
2023/04/30 01:02:23;;;;;;;0.50;0.50;;;17.30;66.20;;;17.43;50.04;95078.81;5018059;28;20593;-39
2023/04/30 01:04:51;;;;;;;0.60;0.60;;;17.30;66.20;;;17.42;50.04;95082.50;5018188;28;20565;-42
2023/04/30 01:07:18;;;;;;;0.50;0.50;;;17.20;66.10;;;17.42;49.93;95079.06;5034798;28;20232;-39
2023/04/30 01:09:45;;;;;;;0.60;0.60;;;17.30;66.20;;;17.39;49.50;95082.16;5034718;28;20550;-42
2023/04/30 01:12:30;;;;;;;0.60;0.60;;;17.20;66.10;;;17.38;49.49;95086.66;5035083;28;20206;-39
2023/04/30 01:15:14;;;;;;;0.60;0.60;;;17.20;66.20;;;17.35;50.00;95079.16;5034746;28;20185;-39
2023/04/30 01:18:12;;;;;;;0.60;0.60;;;17.20;66.20;;;17.33;49.52;95083.06;5034780;28;20180;-41
2023/04/30 01:20:55;;;;;;;0.60;0.60;;;17.20;66.30;;;17.32;50.07;95076.97;5017866;28;20189;-39
2023/04/30 01:23:52;;;;;;;0.50;0.50;;;17.20;66.20;;;17.29;50.04;95074.78;5001200;28;20192;-40
2023/04/30 01:26:55;;;;;;;0.60;0.60;;;17.20;66.30;;;17.27;49.84;95076.84;5002939;28;20320;-39
2023/04/30 01:29:25;;;;;;;0.60;0.60;;;17.10;66.20;;;17.26;50.23;95076.03;5013875;28;20277;-39
2023/04/30 01:31:52;;;;;;;0.57;0.57;;;17.10;66.20;;;17.25;50.14;95077.06;4997663;28;20201;-39
2023/04/30 01:34:19;;;;;;;0.60;0.60;;;17.10;66.30;;;17.25;50.25;95065.69;5014621;28;20193;-38
2023/04/30 01:37:09;;;;;;;0.50;0.50;;;17.10;66.30;;;17.24;50.19;95064.06;5013550;28;20633;-38
2023/04/30 01:40:17;;;;;;;0.60;0.60;;;17.10;66.40;;;17.22;49.87;95066.13;5014874;28;20200;-38
2023/04/30 01:43:04;;;;;;;0.50;0.50;;;17.00;66.30;;;17.20;50.21;95071.66;4998083;28;20216;-38
2023/04/30 01:46:09;;;;;;;0.50;0.50;;;17.00;66.30;;;17.19;49.98;95077.19;4981257;28;20304;-38
2023/04/30 01:48:53;;;;;;;0.60;0.60;;;17.00;66.30;;;17.17;50.25;95069.44;5014784;28;20535;-39
2023/04/30 01:51:47;;;;;;;0.60;0.60;;;17.00;66.40;;;17.16;49.90;95078.44;5014760;28;20177;-38
2023/04/30 01:54:31;;;;;;;0.50;0.50;;;17.00;66.40;;;17.16;49.87;95077.66;4997882;28;20627;-38
2023/04/30 01:57:42;;;;;;;0.57;0.57;;;17.00;66.40;;;17.14;50.31;95075.22;5118358;27;20200;-40
2023/04/30 02:00:10;;;;;;;0.50;0.50;;;17.00;66.40;;;17.12;50.32;95069.34;5117718;27;20200;-40
2023/04/30 02:02:40;;;;;;;0.50;0.50;;;17.00;66.40;;;17.13;50.33;95089.50;5121182;27;20272;-40
2023/04/30 02:05:08;;;;;;;0.50;0.50;;;17.00;67.30;;;17.12;49.96;95080.75;5138320;27;20196;-40
2023/04/30 02:07:41;;;;;;;0.70;0.70;;;17.00;66.40;;;17.12;50.12;95091.38;5120205;27;20578;-39
2023/04/30 02:10:10;;;;;;;0.60;0.60;;;17.00;66.50;;;17.12;50.59;95086.06;5138802;27;20577;-40
2023/04/30 02:12:38;;;;;;;0.50;0.50;;;16.90;66.40;;;17.09;50.31;95083.84;5119964;27;20185;-39
2023/04/30 02:15:07;;;;;;;0.60;0.60;;;16.90;66.40;;;17.09;50.55;95097.09;5120059;27;20283;-41
2023/04/30 02:17:34;;;;;;;0.50;0.50;;;16.90;66.40;;;17.09;50.27;95101.63;5138079;27;20193;-39
2023/04/30 02:20:01;;;;;;;0.50;0.50;;;16.90;66.40;;;17.08;50.08;95103.44;5119932;27;20593;-39
2023/04/30 02:22:28;;;;;;;0.60;0.60;;;16.90;66.40;;;17.07;50.23;95104.47;5138102;27;20201;-41
2023/04/30 02:24:57;;;;;;;0.60;0.60;;;16.90;66.50;;;17.07;50.18;95107.13;5103177;27;20223;-38
2023/04/30 02:27:25;;;;;;;0.60;0.60;;;16.90;66.50;;;17.06;50.49;95107.34;5119830;27;20189;-38
2023/04/30 02:29:53;;;;;;;0.60;0.60;;;16.90;66.50;;;17.05;49.87;95106.56;5137753;27;20216;-38
2023/04/30 02:32:20;;;;;;;0.60;0.60;;;16.90;66.50;;;17.05;50.34;95105.72;5119675;27;20226;-38
2023/04/30 02:34:48;;;;;;;0.50;0.50;;;16.90;66.50;;;17.03;50.51;95103.31;5120795;27;20215;-41
2023/04/30 02:37:15;;;;;;;0.60;0.60;;;16.90;66.40;;;17.02;50.30;95108.84;5137698;27;20200;-40
2023/04/30 02:39:42;;;;;;;0.50;0.50;;;16.90;66.40;;;17.01;50.59;95099.28;5120034;27;20650;-38
2023/04/30 02:42:10;;;;;;;0.50;0.50;;;16.90;66.50;;;16.99;50.52;95096.03;5120052;27;20197;-38
2023/04/30 02:44:37;;;;;;;0.50;0.50;;;16.90;66.50;;;17.00;50.59;95108.28;5137631;27;20634;-38
2023/04/30 02:47:04;;;;;;;0.50;0.50;;;16.80;66.40;;;16.99;50.25;95102.16;5127006;27;20204;-39
2023/04/30 02:49:31;;;;;;;0.60;0.60;;;16.80;66.40;;;16.98;50.40;95111.16;5053700;28;20298;-39
2023/04/30 02:51:59;;;;;;;0.60;0.60;;;16.80;66.40;;;16.96;50.22;95115.84;5052222;28;20196;-39
2023/04/30 02:54:26;;;;;;;0.50;0.50;;;16.80;66.40;;;16.96;50.23;95121.16;5045871;28;20207;-42
2023/04/30 02:56:54;;;;;;;0.50;0.50;;;16.80;66.40;;;16.94;50.34;95129.34;5033599;28;20682;-41
2023/04/30 02:59:21;;;;;;;0.60;0.60;;;16.80;66.40;;;16.90;50.31;95127.34;5016355;28;20200;-43
2023/04/30 03:01:48;;;;;;;0.50;0.50;;;16.80;66.50;;;16.92;50.34;95127.97;5015681;28;20537;-38
2023/04/30 03:04:15;;;;;;;0.50;0.50;;;16.80;66.40;;;16.89;50.48;95129.16;5037386;28;20643;-42
2023/04/30 03:06:43;;;;;;;0.50;0.50;;;16.80;66.50;;;16.90;50.09;95133.44;5032841;28;20242;-39
2023/04/30 03:09:10;;;;;;;0.50;0.50;;;16.80;66.50;;;16.89;50.42;95131.00;5051917;28;20191;-41
2023/04/30 03:11:37;;;;;;;0.60;0.60;;;16.80;66.50;;;16.88;50.48;95129.41;5035256;28;20549;-39
2023/04/30 03:14:04;;;;;;;0.50;0.50;;;16.80;66.50;;;16.88;50.45;95140.00;5051764;28;20212;-39
2023/04/30 03:16:31;;;;;;;0.50;0.50;;;16.70;66.50;;;16.86;50.38;95145.53;5014535;28;20201;-39
2023/04/30 03:18:59;;;;;;;0.50;0.50;;;16.70;66.50;;;16.85;50.46;95143.09;4996296;28;20276;-42
2023/04/30 03:21:26;;;;;;;0.50;0.50;;;16.70;66.50;;;16.85;50.40;95143.91;4996231;28;20610;-39
2023/04/30 03:23:53;;;;;;;0.50;0.50;;;16.70;66.50;;;16.84;50.24;95141.47;4995702;28;20236;-38
2023/04/30 03:26:20;;;;;;;0.52;0.52;;;16.70;66.50;;;16.82;50.38;95144.38;5012997;28;20193;-39
2023/04/30 03:28:47;;;;;;;0.50;0.50;;;16.70;66.50;;;16.81;50.29;95143.53;5028456;28;20236;-40
2023/04/30 03:31:14;;;;;;;0.50;0.50;;;16.70;66.50;;;16.80;50.64;95139.28;5013056;28;20217;-38
2023/04/30 03:33:41;;;;;;;0.60;0.60;;;16.70;66.50;;;16.80;50.61;95144.56;5013455;28;20636;-41
2023/04/30 03:36:08;;;;;;;0.60;0.60;;;16.70;66.60;;;16.78;50.71;95138.72;5013329;28;20242;-39
2023/04/30 03:38:35;;;;;;;0.52;0.52;;;16.70;66.60;;;16.78;50.56;95132.59;4996079;28;20197;-40
2023/04/30 03:41:02;;;;;;;0.70;0.70;;;16.60;66.50;;;16.77;50.39;95139.75;5012759;28;20199;-40
2023/04/30 03:43:30;;;;;;;0.60;0.60;;;16.70;66.70;;;16.77;50.36;95147.69;5012623;28;20193;-40
2023/04/30 03:45:57;;;;;;;0.50;0.50;;;16.60;66.60;;;16.76;50.56;95137.28;4995419;28;20201;-39
2023/04/30 03:48:24;;;;;;;0.50;0.50;;;16.60;66.60;;;16.75;50.42;95141.78;5024200;28;20203;-40
2023/04/30 03:50:52;;;;;;;0.50;0.50;;;16.60;66.60;;;16.75;50.97;95146.31;5051219;28;20230;-40
2023/04/30 03:53:19;;;;;;;0.50;0.50;;;16.60;66.70;;;16.74;50.46;95149.97;5052384;28;20240;-39
2023/04/30 03:55:47;;;;;;;0.50;0.50;;;16.60;66.70;;;16.73;50.84;95137.75;5051228;28;20203;-39
2023/04/30 03:58:14;;;;;;;0.50;0.50;;;16.60;66.70;;;16.73;50.55;95143.06;5034722;28;20196;-41
2023/04/30 04:00:42;;;;;;;0.60;0.60;;;16.60;66.60;;;16.71;50.77;95148.59;5050696;27;20250;-39
2023/04/30 04:03:09;;;;;;;0.52;0.52;;;16.60;66.60;;;16.71;50.79;95145.94;5035400;28;20199;-41
2023/04/30 04:05:39;;;;;;;0.55;0.55;;;16.60;66.60;;;16.71;50.91;95153.06;5031508;28;20211;-40
2023/04/30 04:08:06;;;;;;;0.50;0.50;;;16.60;66.70;;;16.68;50.88;95159.63;5021315;28;20215;-39
2023/04/30 04:10:34;;;;;;;0.50;0.50;;;16.60;66.70;;;16.68;51.04;95154.31;5051015;28;20650;-38
2023/04/30 04:13:02;;;;;;;0.57;0.57;;;16.60;66.70;;;16.66;50.89;95151.06;5046671;28;20205;-39
2023/04/30 04:15:29;;;;;;;0.57;0.57;;;16.60;66.80;;;16.67;50.51;95159.84;5021107;28;20279;-38
2023/04/30 04:17:56;;;;;;;0.50;0.50;;;16.50;66.70;;;16.67;50.91;95157.19;5027408;28;20223;-39
2023/04/30 04:20:23;;;;;;;0.40;0.40;;;16.50;66.70;;;16.65;50.66;95154.78;5066916;28;20207;-41
2023/04/30 04:22:51;;;;;;;0.60;0.60;;;16.50;66.80;;;16.64;51.22;95161.09;5042842;28;20299;-38
2023/04/30 04:25:19;;;;;;;0.52;0.52;;;16.50;67.60;;;16.64;50.49;95164.56;4994850;28;20208;-40
2023/04/30 04:27:46;;;;;;;0.60;0.60;;;16.50;66.80;;;16.63;50.69;95157.63;4994924;28;20201;-39
2023/04/30 04:30:13;;;;;;;0.70;0.70;;;16.50;66.80;;;16.64;50.88;95163.75;5011371;28;20221;-39
2023/04/30 04:32:49;;;;;;;0.60;0.60;;;16.50;66.80;;;16.64;51.01;95175.13;5012079;28;20635;-43
2023/04/30 04:35:19;;;;;;;0.52;0.52;;;16.50;66.80;;;16.63;50.90;95176.16;4997062;28;20211;-40
2023/04/30 04:37:48;;;;;;;0.52;0.52;;;16.50;66.80;;;16.61;50.95;95183.53;5050711;28;20597;-39
2023/04/30 04:40:15;;;;;;;0.60;0.60;;;16.50;66.90;;;16.62;50.67;95184.34;5034374;28;20236;-39
2023/04/30 04:42:42;;;;;;;0.60;0.60;;;16.50;66.90;;;16.60;50.70;95184.56;5034102;28;20195;-38
2023/04/30 04:45:11;;;;;;;0.60;0.60;;;16.50;66.80;;;16.59;50.78;95193.53;5035237;28;20209;-40
2023/04/30 04:47:38;;;;;;;0.50;0.50;;;16.50;66.90;;;16.59;51.23;95190.09;5050555;28;20631;-43
2023/04/30 04:50:06;;;;;;;0.50;0.50;;;16.50;66.90;;;16.57;50.64;95187.66;5050671;28;20570;-40
2023/04/30 04:52:33;;;;;;;0.50;0.50;;;16.50;67.80;;;16.58;51.24;95181.34;5043494;28;20651;-41
2023/04/30 04:55:00;;;;;;;0.50;0.50;;;16.50;66.90;;;16.58;51.18;95183.97;5014495;28;20193;-40
2023/04/30 04:57:27;;;;;;;0.50;0.50;;;16.50;67.80;;;16.57;50.91;95182.34;5031668;28;20279;-45
2023/04/30 04:59:55;;;;;;;0.50;0.50;;;16.50;66.90;;;16.57;51.04;95184.22;5014141;28;20206;-40
2023/04/30 05:02:22;;;;;;;0.60;0.60;;;16.50;66.90;;;16.57;50.96;95186.84;5031477;28;20628;-41
2023/04/30 05:04:50;;;;;;;0.50;0.50;;;16.50;66.90;;;16.56;51.04;95186.03;5014368;28;20200;-42
2023/04/30 05:07:18;;;;;;;0.60;0.60;;;16.50;66.90;;;16.57;51.00;95192.16;5014126;28;20228;-40
2023/04/30 05:09:46;;;;;;;0.50;0.50;;;16.50;67.00;;;16.57;50.92;95198.25;5013984;28;20193;-41
2023/04/30 05:12:13;;;;;;;0.60;0.60;;;16.50;67.10;;;16.55;51.05;95189.75;5016989;28;20201;-39
2023/04/30 05:14:41;;;;;;;0.60;0.60;;;16.50;67.00;;;16.57;51.17;95200.09;5034652;28;20207;-39
2023/04/30 05:17:08;;;;;;;0.73;0.73;;;16.50;67.10;;;16.57;51.07;95192.94;5034912;28;20196;-39
2023/04/30 05:19:35;;;;;;;0.60;0.60;;;16.50;67.10;;;16.57;51.44;95198.25;5035235;28;20203;-38
2023/04/30 05:22:03;;;;;;;0.60;0.60;;;16.50;67.10;;;16.58;51.10;95199.88;5034672;28;20193;-39
2023/04/30 05:24:30;;;;;;;0.70;0.70;;;16.50;67.20;;;16.57;51.01;95205.41;5034503;28;20192;-38
2023/04/30 05:26:56;;;;;;;0.60;0.60;;;16.50;67.20;;;16.58;51.03;95212.31;5034740;28;20203;-42
2023/04/30 05:29:24;;;;;;;0.50;0.50;;;16.50;67.20;;;16.59;51.03;95211.28;5034873;28;20197;-39
2023/04/30 05:31:51;;;;;;;0.50;0.50;;;16.50;67.20;;;16.58;50.99;95207.00;5035178;28;20212;-37
2023/04/30 05:34:18;;;;;;;0.50;0.50;;;16.50;67.20;;;16.55;51.32;95210.09;5048746;28;20196;-37
2023/04/30 05:36:45;;;;;;;0.50;0.50;;;16.50;67.20;;;16.54;51.26;95216.41;5045348;27;20556;-37
2023/04/30 05:39:13;;;;;;;0.55;0.55;;;16.50;67.10;;;16.52;51.38;95211.34;5113902;27;20192;-38
2023/04/30 05:41:40;;;;;;;0.50;0.50;;;16.50;67.10;;;16.49;51.37;95219.75;5045969;28;20200;-37
2023/04/30 05:44:07;;;;;;;0.70;0.70;;;16.40;67.00;;;16.46;50.82;95209.59;5044245;28;20300;-40
2023/04/30 05:46:34;;;;;;;0.50;0.50;;;16.40;66.90;;;16.43;51.12;95212.66;5050322;28;20196;-37
2023/04/30 05:49:01;;;;;;;0.50;0.50;;;16.40;66.90;;;16.39;51.07;95217.59;5017414;28;20534;-37
2023/04/30 05:51:28;;;;;;;0.50;0.50;;;16.40;66.90;;;16.36;51.17;95209.31;5034260;28;20212;-37
2023/04/30 05:53:56;;;;;;;0.50;0.50;;;16.40;66.90;;;16.36;51.51;95219.91;5048590;28;20630;-37
2023/04/30 05:56:24;;;;;;;0.70;0.70;;;16.30;66.90;;;16.32;51.23;95212.38;5053947;28;20192;-39
2023/04/30 05:58:51;;;;;;;0.60;0.60;;;16.30;66.90;;;16.32;51.21;95222.97;5054980;28;20711;-37
2023/04/30 06:01:19;;;;;;;0.60;0.60;;;16.30;66.90;;;16.31;51.68;95225.84;5053552;28;20209;-37
2023/04/30 06:03:46;;;;;;;0.50;0.50;;;16.30;67.00;;;16.30;51.58;95226.88;5053368;28;20187;-37
2023/04/30 06:06:14;;;;;;;0.60;0.60;;;16.30;67.00;;;16.29;51.42;95226.03;5053837;28;20283;-37
2023/04/30 06:08:44;;;;;;;0.63;0.63;;;16.30;67.00;;;16.28;51.27;95227.09;5054072;28;20659;-38
2023/04/30 06:11:12;;;;;;;0.50;0.50;;;16.30;67.00;;;16.29;51.59;95223.41;5032303;28;20616;-37
2023/04/30 06:13:39;;;;;;;0.50;0.50;;;16.30;67.10;;;16.28;51.30;95228.91;5054003;28;20278;-37
2023/04/30 06:16:07;;;;;;;0.50;0.50;;;16.20;67.10;;;16.30;51.15;95229.53;5054081;28;20199;-37
2023/04/30 06:18:34;;;;;;;0.60;0.60;;;16.30;67.20;;;16.29;51.46;95236.63;5037871;28;20604;-37
2023/04/30 06:21:01;;;;;;;0.55;0.55;;;16.30;67.20;;;16.29;51.52;95233.97;5033367;28;20209;-38
2023/04/30 06:23:28;;;;;;;0.50;0.50;;;16.30;67.20;;;16.30;51.65;95234.81;5035393;28;20204;-37
2023/04/30 06:25:55;;;;;;;0.50;0.50;;;16.30;67.20;;;16.31;51.52;95236.44;5053706;28;20519;-38
2023/04/30 06:28:22;;;;;;;0.50;0.50;;;16.30;67.20;;;16.30;51.76;95227.66;5038724;28;20208;-37
2023/04/30 06:30:50;;;;;;;0.70;0.70;;;16.30;67.30;;;16.32;51.52;95230.13;5036870;28;20219;-40
2023/04/30 06:33:17;;;;;;;0.57;0.57;;;16.20;67.20;;;16.32;51.81;95230.91;5037106;28;20206;-40
2023/04/30 06:35:45;;;;;;;0.60;0.60;;;16.30;67.30;;;16.31;52.06;95226.66;5045569;28;20188;-37
2023/04/30 06:38:13;;;;;;;0.52;0.52;;;16.30;67.40;;;16.34;51.92;95235.97;5040305;28;20208;-38
2023/04/30 06:40:40;;;;;;;0.50;0.50;;;16.30;67.40;;;16.35;51.88;95234.97;5050729;28;20282;-39
2023/04/30 06:43:07;;;;;;;0.40;0.40;;;16.30;67.50;;;16.36;51.74;95238.44;5038024;28;20222;-40
2023/04/30 06:45:34;;;;;;;0.50;0.50;;;16.30;67.50;;;16.34;51.55;95235.97;5040953;28;20247;-38
2023/04/30 06:48:01;;;;;;;0.52;0.52;;;16.30;67.50;;;16.39;52.04;95244.06;5033544;28;20216;-38
2023/04/30 06:50:28;;;;;;;0.50;0.50;;;16.30;67.50;;;16.39;51.53;95243.28;5033460;28;20226;-37
2023/04/30 06:52:55;;;;;;;0.60;0.60;;;16.30;68.40;;;16.39;51.51;95240.63;5043028;28;20276;-40
2023/04/30 07:34:35;;;;;;;0.50;0.50;;;13.40;69.70;;;15.52;56.18;95252.75;5127718;27;20563;-37
2023/04/30 07:37:02;;;;;;;0.40;0.40;;;15.00;72.00;;;15.76;55.23;95256.44;5107342;28;20279;-41
2023/04/30 07:39:29;;;;;;;0.50;0.50;;;15.40;71.30;;;15.97;54.59;95252.63;5094961;28;20229;-37
2023/04/30 07:41:56;;;;;;;0.60;0.60;;;15.60;70.50;;;16.14;54.46;95250.22;5097674;28;20190;-37
2023/04/30 07:44:23;;;;;;;0.60;0.60;;;15.90;70.10;;;16.27;53.61;95257.25;5107423;28;20198;-37
2023/04/30 07:46:50;;;;;;;0.60;0.60;;;16.00;70.50;;;16.38;53.41;95255.72;5097428;28;20201;-38
2023/04/30 07:49:17;;;;;;;0.50;0.50;;;16.20;69.40;;;16.47;53.42;95258.88;5108170;28;20251;-37
2023/04/30 07:51:45;;;;;;;0.70;0.70;;;16.30;69.30;;;16.52;53.07;95259.00;5112052;28;20536;-38
2023/04/30 07:54:12;;;;;;;0.50;0.50;;;16.30;68.90;;;16.58;52.91;95254.69;5109037;28;20201;-39
2023/04/30 07:56:39;;;;;;;0.60;0.60;;;16.40;68.90;;;16.61;52.69;95257.69;5092167;28;20208;-37
2023/04/30 07:59:06;;;;;;;0.60;0.60;;;16.50;68.80;;;16.65;52.87;95258.88;5091771;28;20660;-37
2023/04/30 08:01:33;;;;;;;0.60;0.60;;;16.50;68.60;;;16.68;52.59;95260.25;5107383;28;20204;-37
2023/04/30 08:04:00;;;;;;;0.57;0.57;;;16.50;68.60;;;16.70;52.80;95250.25;5112319;28;20323;-37
2023/04/30 08:06:27;;;;;;;0.60;0.60;;;16.60;68.50;;;16.74;52.62;95255.94;5096338;28;20198;-37
2023/04/30 08:08:55;;;;;;;0.60;0.60;;;16.60;68.40;;;16.77;52.70;95255.47;5091886;28;20258;-37
2023/04/30 08:11:22;;;;;;;0.60;0.60;;;16.60;68.40;;;16.79;52.22;95256.84;5091795;28;20629;-37
2023/04/30 08:13:49;;;;;;;0.60;0.60;;;16.60;68.30;;;16.83;52.46;95254.56;5093481;28;20189;-37
2023/04/30 08:16:16;;;;;;;0.50;0.50;;;16.70;68.30;;;16.86;52.20;95251.50;5098932;28;20202;-37
2023/04/30 08:18:45;;;;;;;0.60;0.60;;;16.70;68.40;;;16.88;52.22;95249.44;5091329;28;20198;-37
2023/04/30 08:21:12;;;;;;;0.50;0.50;;;16.70;68.20;;;16.91;52.03;95251.63;5095340;28;20201;-37
2023/04/30 08:23:39;;;;;;;0.50;0.50;;;16.80;68.30;;;16.91;52.32;95251.63;5095265;28;20222;-37
2023/04/30 08:26:06;;;;;;;0.57;0.57;;;16.80;68.10;;;16.94;52.32;95256.53;5098689;28;20194;-37
2023/04/30 08:28:33;;;;;;;0.50;0.50;;;16.80;68.00;;;16.96;52.06;95254.44;5111660;28;20205;-38
2023/04/30 08:31:00;;;;;;;0.52;0.52;;;16.80;68.00;;;16.99;51.78;95255.03;5111682;28;20679;-37
2023/04/30 08:33:27;;;;;;;0.60;0.60;;;16.80;68.90;;;17.01;51.70;95256.44;5109090;28;20324;-39
2023/04/30 08:35:55;;;;;;;0.50;0.50;;;16.80;68.00;;;17.05;51.82;95262.91;5092304;28;20210;-37
2023/04/30 08:38:22;;;;;;;0.57;0.57;;;16.90;68.00;;;17.09;52.13;95268.56;5091000;28;20194;-39
2023/04/30 08:41:05;;;;;;;0.60;0.60;;;16.90;68.00;;;17.10;52.11;95256.91;5079730;28;20197;-37
2023/04/30 08:43:34;;;;;;;0.70;0.70;;;16.90;67.60;;;17.12;51.68;95252.22;5093592;28;20724;-40
2023/04/30 08:46:04;;;;;;;0.60;0.60;;;17.00;67.60;;;17.13;51.26;95257.28;5076423;28;20199;-38
2023/04/30 08:48:32;;;;;;;0.40;0.40;;;17.00;67.70;;;17.16;51.66;95255.22;5076982;28;20195;-42
2023/04/30 08:51:02;;;;;;;0.50;0.50;;;17.00;67.50;;;17.16;51.62;95263.97;5077633;28;20190;-41
2023/04/30 08:53:34;;;;;;;0.50;0.50;;;17.00;67.40;;;17.17;51.59;95265.59;5043670;28;20191;-42
2023/04/30 08:56:03;;;;;;;0.50;0.50;;;17.00;67.30;;;17.19;51.24;95265.38;5077672;28;20265;-41
2023/04/30 08:58:30;;;;;;;0.50;0.50;;;17.00;67.30;;;17.20;51.62;95267.81;5077011;28;20260;-41
2023/04/30 09:00:58;;;;;;;0.45;0.45;;;17.00;67.30;;;17.22;51.26;95268.41;5059804;28;20685;-40
2023/04/30 09:03:27;;;;;;;0.50;0.50;;;17.10;67.50;;;17.25;51.07;95264.50;5077193;28;20218;-38
2023/04/30 09:05:55;;;;;;;0.55;0.55;;;17.10;68.40;;;17.26;51.41;95272.22;5076936;28;20187;-37
2023/04/30 09:08:46;;;;;;;0.50;0.50;;;17.10;67.40;;;17.26;51.21;95274.06;5077237;28;20293;-41
2023/04/30 09:11:31;;;;;;;0.50;0.50;;;17.10;67.30;;;17.27;51.49;95286.25;5077445;28;20195;-37
2023/04/30 09:14:00;;;;;;;0.50;0.50;;;17.10;67.30;;;17.28;51.45;95277.28;5077035;28;20202;-40
2023/04/30 09:16:44;;;;;;;0.50;0.50;;;17.20;67.30;;;17.31;51.39;95286.63;5077127;28;20259;-38
2023/04/30 09:19:29;;;;;;;0.50;0.50;;;17.20;67.20;;;17.31;51.08;95279.50;5060094;28;20513;-38
2023/04/30 09:21:57;;;;;;;0.50;0.50;;;17.20;67.00;;;17.33;50.77;95281.91;5077694;28;20179;-40
2023/04/30 09:24:25;;;;;;;0.50;0.50;;;17.20;67.20;;;17.33;51.17;95282.72;5077215;28;20207;-45
2023/04/30 09:26:53;;;;;;;0.50;0.50;;;17.20;67.10;;;17.35;50.70;95285.16;5076078;28;20340;-41
2023/04/30 09:29:20;;;;;;;0.50;0.50;;;17.20;67.00;;;17.31;50.61;95271.53;5076869;28;20194;-40
2023/04/30 09:31:47;;;;;;;0.50;0.50;;;17.20;67.10;;;17.38;51.22;95280.22;5059109;28;20559;-37
2023/04/30 09:34:14;;;;;;;0.50;0.50;;;17.20;67.20;;;17.40;51.13;95278.13;5076475;28;20333;-39
2023/04/30 09:36:55;;;;;;;0.50;0.50;;;17.20;67.10;;;17.43;51.05;95272.38;5076603;28;20640;-47
2023/04/30 09:39:22;;;;;;;0.60;0.60;;;17.20;66.60;;;17.45;50.73;95266.84;5075833;28;20187;-38
2023/04/30 09:41:53;;;;;;;0.50;0.50;;;17.30;67.10;;;17.49;50.79;95261.91;5059294;28;20209;-40
2023/04/30 09:44:32;;;;;;;0.50;0.50;;;17.30;67.10;;;17.52;50.40;95264.13;5087370;28;20206;-36
2023/04/30 09:46:59;;;;;;;0.40;0.40;;;17.30;66.80;;;17.53;50.30;95263.88;5069845;28;20217;-39
2023/04/30 09:49:26;;;;;;;0.47;0.47;;;17.40;66.90;;;17.55;50.56;95259.16;5096322;28;20251;-36
2023/04/30 09:51:55;;;;;;;0.40;0.40;;;17.40;66.70;;;17.59;50.30;95259.53;5096043;28;20193;-38
2023/04/30 09:54:30;;;;;;;0.50;0.50;;;17.40;66.50;;;17.59;49.80;95259.53;5096023;28;20594;-38
2023/04/30 09:57:01;;;;;;;0.40;0.40;;;17.40;66.30;;;17.61;50.52;95262.72;5097011;28;20200;-37
2023/04/30 09:59:31;;;;;;;0.50;0.50;;;17.40;66.30;;;17.63;50.28;95252.72;5096452;28;20189;-37
2023/04/30 10:02:02;;;;;;;0.47;0.47;;;17.50;66.50;;;17.65;49.85;95261.25;5096712;28;20207;-36
2023/04/30 10:04:54;;;;;;;0.50;0.50;;;17.50;66.40;;;17.66;49.82;95256.75;5092822;28;20241;-38
2023/04/30 10:07:25;;;;;;;0.60;0.60;;;17.50;65.80;;;17.68;49.82;95254.69;5068997;28;20206;-39
2023/04/30 10:10:06;;;;;;;0.50;0.50;;;17.50;66.10;;;17.70;49.55;95253.44;5075147;28;20206;-36
2023/04/30 10:12:43;;;;;;;0.50;0.50;;;17.50;65.90;;;17.71;49.52;95254.22;5075719;28;20190;-39
2023/04/30 10:15:46;;;;;;;0.50;0.50;;;17.50;66.90;;;17.71;49.54;95252.41;5076088;28;20189;-36
2023/04/30 10:18:36;;;;;;;0.40;0.40;;;17.50;66.00;;;17.73;50.05;95252.94;5045729;28;20213;-41
2023/04/30 10:21:11;;;;;;;0.50;0.50;;;17.60;65.90;;;17.77;49.46;95250.66;5075017;28;20183;-41
2023/04/30 10:23:42;;;;;;;0.50;0.50;;;17.60;65.80;;;17.79;49.79;95245.13;5075633;28;20205;-39
2023/04/30 10:26:15;;;;;;;0.50;0.50;;;17.60;65.90;;;17.80;49.10;95247.56;5075862;28;20290;-39
2023/04/30 10:28:42;;;;;;;0.60;0.60;;;17.60;65.60;;;17.82;49.65;95248.16;5075392;28;20244;-40
2023/04/30 10:31:10;;;;;;;0.52;0.52;;;17.60;66.80;;;17.85;49.53;95242.38;5058122;28;20191;-39
2023/04/30 10:34:08;;;;;;;0.50;0.50;;;17.70;65.70;;;17.85;49.27;95239.72;5075272;28;20233;-42
2023/04/30 10:36:47;;;;;;;0.55;0.55;;;17.60;65.40;;;17.87;49.02;95235.00;5075131;28;20198;-39
2023/04/30 10:39:28;;;;;;;0.40;0.40;;;17.70;65.50;;;17.88;48.86;95239.25;5075289;28;20215;-41
2023/04/30 10:42:04;;;;;;;0.50;0.50;;;17.70;65.50;;;17.90;49.31;95236.38;5058940;28;20193;-39
2023/04/30 10:44:33;;;;;;;0.60;0.60;;;17.70;65.30;;;17.91;48.86;95235.34;5057854;28;20214;-40
2023/04/30 10:47:03;;;;;;;0.50;0.50;;;17.70;65.60;;;17.92;49.19;95242.28;5041568;28;20201;-40
2023/04/30 10:49:30;;;;;;;0.50;0.50;;;17.70;65.50;;;17.92;48.69;95231.66;5075329;28;20195;-39
2023/04/30 10:52:03;;;;;;;0.50;0.50;;;17.70;65.50;;;17.94;48.73;95237.53;5075193;28;20209;-42
2023/04/30 10:54:36;;;;;;;0.40;0.40;;;17.70;65.30;;;17.93;48.55;95238.56;5078763;28;20244;-39
2023/04/30 10:57:19;;;;;;;0.50;0.50;;;17.70;65.30;;;17.93;48.89;95231.41;5074074;28;20213;-39
2023/04/30 10:59:49;;;;;;;0.50;0.50;;;17.70;65.30;;;17.94;48.99;95240.16;5084696;28;20305;-41
2023/04/30 11:02:16;;;;;;;0.50;0.50;;;17.70;65.20;;;17.94;48.98;95232.22;5075069;28;20206;-40
2023/04/30 11:05:05;;;;;;;0.50;0.50;;;17.70;65.40;;;17.96;48.45;95232.03;5075197;28;20233;-38
2023/04/30 11:07:32;;;;;;;0.40;0.40;;;17.70;65.20;;;17.98;49.06;95227.28;5075421;28;20186;-39
2023/04/30 11:10:01;;;;;;;0.50;0.50;;;17.80;65.40;;;17.98;48.59;95227.28;5075062;28;20202;-37
2023/04/30 11:12:28;;;;;;;0.50;0.50;;;17.80;65.00;;;18.01;48.77;95224.97;5074959;28;20275;-37